LICCLICZ

Guest
Details From LICC - Catania Fontanarossa
To LICZ - Sigonella
Flight Number -
Tags Routegen Generated
Created
Modified
Stats Distance 17 nm / 32 km
Max Altitude 100 ft / 30 m
Waypoints 5
Social Downloads 1
Likes 0
Share VATSIM

Download

Looking for another format? Having issues loading an existing format? Contact us
Advertisement - Login to hide

Notes

Departing runway 8 LICC. Arriving runway 9 LICZ.

Route

LICC +37.48_+015.17 +37.43_+015.10 +37.39_+015.03 LICZ

ID Type Via Altitude Latitude Longitude Leg Dist Tot Dist Heading (true) Name
O LICC APT - 0 ft / 0 m 37.46793˚ 15.08011˚ - 0 nm - -
+37.48_+015.17 LATLON - 100 ft / 30 m 37.47552˚ 15.17079˚ 4 nm 4 nm 84° / 84° -
+37.43_+015.10 LATLON - 100 ft / 30 m 37.43255˚ 15.09849˚ 4 nm 8 nm 233° / 233° -
+37.39_+015.03 LATLON - 100 ft / 30 m 37.38958˚ 15.02619˚ 4 nm 12 nm 233° / 233° -
O LICZ APT - 0 ft / 0 m 37.40004˚ 14.93606˚ 4 nm 17 nm 278° / 278° -

Altitude Profile

Advertisement - Login to hide

LICC

Details ICAO LICC (CTA)
Name Catania Fontanarossa
Region Italy
Timezone Europe/Rome (UTC+2.0)
Stats Elevation 39 ft / 12 m (AMSL)
Location 37.466779° 15.066401°
Runways 1
Magnetic Variation 3.259° E

METAR

LICC 272120Z 06005KT CAVOK 22/19 Q1017

Decode

TAF

TAF LICC 271700Z 2718/2818 09010KT 9999 FEW050 BECMG 2718/2720 VRB05KT BECMG 2810/2812 09012KT

Decode

Departure Runways

ID Width Length Bearing (true) Bearing (mag) Surface Threshold Offset Overrun Length
08 148 ft / 45 m 7,985 ft / 2,434 m 83.94° 80.68° Asphalt 312 ft / 95 m 0 ft / 0 m
26 148 ft / 45 m 7,985 ft / 2,434 m 263.95° 260.69° Asphalt 279 ft / 85 m 0 ft / 0 m

LICZ

Details ICAO LICZ (NSY)
Name SIGONELLA
Region Italy
Timezone Europe/Rome (UTC+2.0)
Stats Elevation 79 ft / 24 m (AMSL)
Location 37.402588° 14.922481°
Runways 2
Magnetic Variation 3.233° E

METAR

LICZ 272055Z 31002KT CAVOK 18/18 Q1017 RMK SKC VIS MIN 9999 WIND THR28 06005KT WIND THR10 33003KT A3005 BLU

Decode

TAF

Not found

Destination Runways

ID Width Length Bearing (true) Bearing (mag) Surface Threshold Offset Overrun Length
10L 98 ft / 30 m 7,997 ft / 2,437 m 98.38° 95.15° Asphalt 146 ft / 45 m 0 ft / 0 m
10R 148 ft / 45 m 8,060 ft / 2,457 m 98.27° 95.04° Asphalt 343 ft / 105 m 760 ft / 232 m
28L 148 ft / 45 m 8,060 ft / 2,457 m 278.29° 275.06° Asphalt 349 ft / 106 m 704 ft / 215 m
28R 98 ft / 30 m 7,997 ft / 2,437 m 278.40° 275.17° Asphalt 139 ft / 42 m 0 ft / 0 m